sensor_id;sensor_type;location;lat;lon;timestamp;pressure;altitude;pressure_sealevel;temperature;humidity
11676;BME280;5894;42.768;23.404;2023-02-21T00:00:59;96048.78;;;6.58;87.18
11676;BME280;5894;42.768;23.404;2023-02-21T00:03:45;96056.66;;;6.58;87.57
11676;BME280;5894;42.768;23.404;2023-02-21T00:06:29;96041.72;;;6.49;87.66
11676;BME280;5894;42.768;23.404;2023-02-21T00:09:14;96041.44;;;6.55;87.57
11676;BME280;5894;42.768;23.404;2023-02-21T00:11:58;95999.06;;;6.33;86.88
11676;BME280;5894;42.768;23.404;2023-02-21T00:14:42;96046.44;;;6.52;87.27
11676;BME280;5894;42.768;23.404;2023-02-21T00:17:26;96043.81;;;6.57;87.55
11676;BME280;5894;42.768;23.404;2023-02-21T00:20:12;96046.97;;;6.59;87.26
11676;BME280;5894;42.768;23.404;2023-02-21T00:22:56;96050.34;;;6.54;88.26
11676;BME280;5894;42.768;23.404;2023-02-21T00:25:41;96035.16;;;6.56;88.16
11676;BME280;5894;42.768;23.404;2023-02-21T00:28:25;96036.22;;;6.50;88.29
11676;BME280;5894;42.768;23.404;2023-02-21T00:31:09;96004.78;;;6.35;87.73
11676;BME280;5894;42.768;23.404;2023-02-21T00:33:53;95909.47;;;5.75;88.32
11676;BME280;5894;42.768;23.404;2023-02-21T00:36:41;96033.59;;;6.55;88.19
11676;BME280;5894;42.768;23.404;2023-02-21T00:39:26;95981.50;;;6.18;88.05
11676;BME280;5894;42.768;23.404;2023-02-21T00:42:10;96012.66;;;6.35;88.08
11676;BME280;5894;42.768;23.404;2023-02-21T00:44:54;96027.31;;;6.56;87.52
11676;BME280;5894;42.768;23.404;2023-02-21T00:47:38;96028.34;;;6.60;87.11
11676;BME280;5894;42.768;23.404;2023-02-21T00:50:23;96022.31;;;6.55;87.20
11676;BME280;5894;42.768;23.404;2023-02-21T00:53:09;96011.31;;;6.58;87.59
11676;BME280;5894;42.768;23.404;2023-02-21T00:55:53;95952.69;;;6.29;86.63
11676;BME280;5894;42.768;23.404;2023-02-21T00:58:38;95995.34;;;6.59;86.88
11676;BME280;5894;42.768;23.404;2023-02-21T01:01:22;95986.16;;;6.72;85.81
11676;BME280;5894;42.768;23.404;2023-02-21T01:04:08;95984.03;;;6.69;85.76
11676;BME280;5894;42.768;23.404;2023-02-21T01:06:52;95977.47;;;6.77;85.64
11676;BME280;5894;42.768;23.404;2023-02-21T01:09:37;95945.28;;;6.56;85.40
11676;BME280;5894;42.768;23.404;2023-02-21T01:12:22;95969.56;;;6.87;84.76
11676;BME280;5894;42.768;23.404;2023-02-21T01:15:07;95977.44;;;6.87;84.72
11676;BME280;5894;42.768;23.404;2023-02-21T01:17:51;95968.78;;;6.91;85.15
11676;BME280;5894;42.768;23.404;2023-02-21T01:20:35;95968.53;;;6.93;84.60
11676;BME280;5894;42.768;23.404;2023-02-21T01:23:19;95968.53;;;6.93;84.39
11676;BME280;5894;42.768;23.404;2023-02-21T01:26:07;95965.34;;;7.01;83.85
11676;BME280;5894;42.768;23.404;2023-02-21T01:28:52;95947.06;;;6.81;84.26
11676;BME280;5894;42.768;23.404;2023-02-21T01:31:36;95955.63;;;6.96;85.12
11676;BME280;5894;42.768;23.404;2023-02-21T01:34:20;95958.03;;;6.93;85.64
11676;BME280;5894;42.768;23.404;2023-02-21T01:37:05;95937.38;;;6.76;85.53
11676;BME280;5894;42.768;23.404;2023-02-21T01:39:49;95948.59;;;6.92;85.62
11676;BME280;5894;42.768;23.404;2023-02-21T01:42:35;95932.91;;;6.77;85.80
11676;BME280;5894;42.768;23.404;2023-02-21T01:45:45;95955.97;;;6.85;86.92
11676;BME280;5894;42.768;23.404;2023-02-21T01:48:30;95853.41;;;6.32;86.42
11676;BME280;5894;42.768;23.404;2023-02-21T01:51:23;95947.03;;;6.86;86.02
11676;BME280;5894;42.768;23.404;2023-02-21T01:54:09;95931.81;;;6.88;86.32
11676;BME280;5894;42.768;23.404;2023-02-21T01:56:54;95927.41;;;6.83;87.31
11676;BME280;5894;42.768;23.404;2023-02-21T01:59:40;95926.88;;;6.81;88.02
11676;BME280;5894;42.768;23.404;2023-02-21T02:02:29;95860.22;;;6.33;88.03
11676;BME280;5894;42.768;23.404;2023-02-21T02:05:14;95922.16;;;6.83;88.19
11676;BME280;5894;42.768;23.404;2023-02-21T02:07:59;95882.16;;;6.52;87.99
11676;BME280;5894;42.768;23.404;2023-02-21T02:10:44;95806.38;;;5.97;88.73
11676;BME280;5894;42.768;23.404;2023-02-21T02:13:42;95913.03;;;6.66;88.58
11676;BME280;5894;42.768;23.404;2023-02-21T02:16:24;95907.78;;;6.66;89.02
11676;BME280;5894;42.768;23.404;2023-02-21T02:19:02;95911.19;;;6.66;88.36
11676;BME280;5894;42.768;23.404;2023-02-21T02:24:53;95899.94;;;6.55;88.60
11676;BME280;5894;42.768;23.404;2023-02-21T02:27:46;95916.47;;;6.56;89.18
11676;BME280;5894;42.768;23.404;2023-02-21T02:30:46;95912.00;;;6.56;89.64
11676;BME280;5894;42.768;23.404;2023-02-21T02:33:53;95853.44;;;6.22;88.57
11676;BME280;5894;42.768;23.404;2023-02-21T02:36:29;95862.31;;;6.26;88.77
11676;BME280;5894;42.768;23.404;2023-02-21T02:39:04;95895.78;;;6.49;89.19
11676;BME280;5894;42.768;23.404;2023-02-21T02:41:45;95875.91;;;6.38;89.12
11676;BME280;5894;42.768;23.404;2023-02-21T02:44:17;95903.09;;;6.57;88.85
11676;BME280;5894;42.768;23.404;2023-02-21T02:46:48;95891.59;;;6.53;88.82
11676;BME280;5894;42.768;23.404;2023-02-21T02:49:20;95889.75;;;6.49;88.92
11676;BME280;5894;42.768;23.404;2023-02-21T02:51:52;95898.41;;;6.49;89.80
11676;BME280;5894;42.768;23.404;2023-02-21T02:54:21;95886.66;;;6.42;90.86
11676;BME280;5894;42.768;23.404;2023-02-21T02:56:48;95890.31;;;6.41;91.16
11676;BME280;5894;42.768;23.404;2023-02-21T02:59:19;95881.94;;;6.34;90.95
11676;BME280;5894;42.768;23.404;2023-02-21T03:02:08;95899.75;;;6.42;90.51
11676;BME280;5894;42.768;23.404;2023-02-21T03:05:02;95893.19;;;6.39;90.06
11676;BME280;5894;42.768;23.404;2023-02-21T03:07:47;95893.47;;;6.38;90.45
11676;BME280;5894;42.768;23.404;2023-02-21T03:10:22;95897.66;;;6.34;91.11
11676;BME280;5894;42.768;23.404;2023-02-21T03:13:00;95875.19;;;6.22;90.99
11676;BME280;5894;42.768;23.404;2023-02-21T03:15:34;95812.38;;;5.87;90.42
11676;BME280;5894;42.768;23.404;2023-02-21T03:18:08;95872.03;;;6.15;90.71
11676;BME280;5894;42.768;23.404;2023-02-21T03:20:36;95874.13;;;6.13;89.88
11676;BME280;5894;42.768;23.404;2023-02-21T03:23:05;95881.22;;;5.93;89.39
11676;BME280;5894;42.768;23.404;2023-02-21T03:25:35;95878.88;;;5.96;88.35
11676;BME280;5894;42.768;23.404;2023-02-21T03:28:04;95905.84;;;5.92;89.34
11676;BME280;5894;42.768;23.404;2023-02-21T03:30:37;95893.00;;;5.70;92.43
11676;BME280;5894;42.768;23.404;2023-02-21T03:33:07;95889.84;;;5.58;92.52
11676;BME280;5894;42.768;23.404;2023-02-21T03:35:34;95868.13;;;5.16;92.80
11676;BME280;5894;42.768;23.404;2023-02-21T03:38:00;95895.31;;;5.31;95.03
11676;BME280;5894;42.768;23.404;2023-02-21T03:40:30;95895.59;;;5.34;93.21
11676;BME280;5894;42.768;23.404;2023-02-21T03:43:01;95790.03;;;4.37;95.44
11676;BME280;5894;42.768;23.404;2023-02-21T03:45:34;95897.00;;;4.79;96.42
11676;BME280;5894;42.768;23.404;2023-02-21T03:48:06;95866.78;;;4.36;100.00
11676;BME280;5894;42.768;23.404;2023-02-21T03:50:34;95902.63;;;4.46;100.00
11676;BME280;5894;42.768;23.404;2023-02-21T03:53:01;95904.59;;;4.24;100.00
11676;BME280;5894;42.768;23.404;2023-02-21T03:55:31;95891.19;;;4.10;100.00
11676;BME280;5894;42.768;23.404;2023-02-21T03:58:02;95882.38;;;4.21;100.00
11676;BME280;5894;42.768;23.404;2023-02-21T04:00:31;95914.31;;;4.38;100.00
11676;BME280;5894;42.768;23.404;2023-02-21T04:02:58;95911.47;;;4.35;100.00
11676;BME280;5894;42.768;23.404;2023-02-21T04:05:38;95919.97;;;4.20;100.00
11676;BME280;5894;42.768;23.404;2023-02-21T04:08:07;95917.06;;;4.17;100.00
11676;BME280;5894;42.768;23.404;2023-02-21T04:10:35;95898.06;;;4.21;100.00
11676;BME280;5894;42.768;23.404;2023-02-21T04:13:03;95879.97;;;4.04;100.00
11676;BME280;5894;42.768;23.404;2023-02-21T04:15:35;95912.88;;;4.16;100.00
11676;BME280;5894;42.768;23.404;2023-02-21T04:18:03;95910.28;;;4.16;100.00
11676;BME280;5894;42.768;23.404;2023-02-21T04:20:30;95918.16;;;4.21;100.00
11676;BME280;5894;42.768;23.404;2023-02-21T04:22:58;95919.75;;;4.27;100.00
11676;BME280;5894;42.768;23.404;2023-02-21T04:25:25;95909.03;;;4.23;100.00
11676;BME280;5894;42.768;23.404;2023-02-21T04:27:59;95919.28;;;4.35;100.00
11676;BME280;5894;42.768;23.404;2023-02-21T04:30:26;95916.31;;;4.21;100.00
11676;BME280;5894;42.768;23.404;2023-02-21T04:32:53;95915.50;;;4.16;100.00
11676;BME280;5894;42.768;23.404;2023-02-21T04:35:20;95920.00;;;4.25;100.00
11676;BME280;5894;42.768;23.404;2023-02-21T04:37:47;95928.09;;;4.29;100.00
11676;BME280;5894;42.768;23.404;2023-02-21T04:40:14;95920.59;;;4.37;100.00
11676;BME280;5894;42.768;23.404;2023-02-21T04:42:42;95913.78;;;4.31;100.00
11676;BME280;5894;42.768;23.404;2023-02-21T04:45:10;95917.78;;;4.49;100.00
11676;BME280;5894;42.768;23.404;2023-02-21T04:47:37;95895.44;;;4.21;100.00
11676;BME280;5894;42.768;23.404;2023-02-21T04:50:04;95917.19;;;4.37;100.00
11676;BME280;5894;42.768;23.404;2023-02-21T04:52:32;95905.63;;;4.23;100.00
11676;BME280;5894;42.768;23.404;2023-02-21T04:54:58;95907.47;;;4.27;100.00
11676;BME280;5894;42.768;23.404;2023-02-21T04:57:25;95923.44;;;4.31;100.00
11676;BME280;5894;42.768;23.404;2023-02-21T04:59:56;95871.69;;;3.81;100.00
11676;BME280;5894;42.768;23.404;2023-02-21T05:02:24;95914.72;;;3.78;100.00
11676;BME280;5894;42.768;23.404;2023-02-21T05:04:51;95912.75;;;3.58;100.00
11676;BME280;5894;42.768;23.404;2023-02-21T05:07:18;95906.00;;;3.62;100.00
11676;BME280;5894;42.768;23.404;2023-02-21T05:09:45;95901.06;;;3.66;100.00
11676;BME280;5894;42.768;23.404;2023-02-21T05:12:12;95905.25;;;3.67;100.00
11676;BME280;5894;42.768;23.404;2023-02-21T05:14:39;95877.88;;;3.38;100.00
11676;BME280;5894;42.768;23.404;2023-02-21T05:17:06;95894.66;;;3.20;100.00
11676;BME280;5894;42.768;23.404;2023-02-21T05:19:34;95894.75;;;3.03;100.00
11676;BME280;5894;42.768;23.404;2023-02-21T05:22:02;95910.00;;;2.89;100.00
11676;BME280;5894;42.768;23.404;2023-02-21T05:24:30;95905.47;;;2.80;100.00
11676;BME280;5894;42.768;23.404;2023-02-21T05:26:57;95905.16;;;2.76;100.00
11676;BME280;5894;42.768;23.404;2023-02-21T05:29:24;95909.19;;;2.89;100.00
11676;BME280;5894;42.768;23.404;2023-02-21T05:31:51;95895.94;;;2.90;100.00
11676;BME280;5894;42.768;23.404;2023-02-21T05:34:18;95901.88;;;2.86;100.00
11676;BME280;5894;42.768;23.404;2023-02-21T05:36:46;95905.06;;;2.71;100.00
11676;BME280;5894;42.768;23.404;2023-02-21T05:39:13;95913.50;;;2.56;100.00
11676;BME280;5894;42.768;23.404;2023-02-21T05:41:45;95902.34;;;2.39;100.00
11676;BME280;5894;42.768;23.404;2023-02-21T05:44:12;95912.03;;;2.44;100.00
11676;BME280;5894;42.768;23.404;2023-02-21T05:46:39;95853.28;;;2.09;100.00
11676;BME280;5894;42.768;23.404;2023-02-21T05:49:05;95912.41;;;2.52;100.00
11676;BME280;5894;42.768;23.404;2023-02-21T05:51:34;95890.00;;;2.51;100.00
11676;BME280;5894;42.768;23.404;2023-02-21T05:54:02;95913.44;;;2.73;100.00
11676;BME280;5894;42.768;23.404;2023-02-21T05:56:29;95917.59;;;2.96;100.00
11676;BME280;5894;42.768;23.404;2023-02-21T05:58:56;95905.97;;;3.04;100.00
11676;BME280;5894;42.768;23.404;2023-02-21T06:01:23;95911.28;;;3.14;100.00
11676;BME280;5894;42.768;23.404;2023-02-21T06:03:50;95926.06;;;3.35;100.00
11676;BME280;5894;42.768;23.404;2023-02-21T06:06:16;95930.00;;;3.38;100.00
11676;BME280;5894;42.768;23.404;2023-02-21T06:08:44;95929.19;;;3.32;100.00
11676;BME280;5894;42.768;23.404;2023-02-21T06:11:12;95927.72;;;3.41;100.00
11676;BME280;5894;42.768;23.404;2023-02-21T06:13:39;95920.16;;;3.45;100.00
11676;BME280;5894;42.768;23.404;2023-02-21T06:16:07;95931.53;;;3.60;100.00
11676;BME280;5894;42.768;23.404;2023-02-21T06:18:33;95929.81;;;3.76;100.00
11676;BME280;5894;42.768;23.404;2023-02-21T06:21:00;95933.09;;;3.93;100.00
11676;BME280;5894;42.768;23.404;2023-02-21T06:23:27;95935.31;;;4.12;100.00
11676;BME280;5894;42.768;23.404;2023-02-21T06:25:54;95927.84;;;4.25;100.00
11676;BME280;5894;42.768;23.404;2023-02-21T06:28:26;95920.56;;;4.32;100.00
11676;BME280;5894;42.768;23.404;2023-02-21T06:30:53;95933.44;;;4.44;100.00
11676;BME280;5894;42.768;23.404;2023-02-21T06:33:20;95883.72;;;4.29;100.00
11676;BME280;5894;42.768;23.404;2023-02-21T06:35:47;95906.75;;;4.37;100.00
11676;BME280;5894;42.768;23.404;2023-02-21T06:38:14;95926.44;;;4.60;100.00
11676;BME280;5894;42.768;23.404;2023-02-21T06:40:40;95935.13;;;4.70;100.00
11676;BME280;5894;42.768;23.404;2023-02-21T06:43:08;95942.50;;;4.89;100.00
11676;BME280;5894;42.768;23.404;2023-02-21T06:45:36;95944.13;;;5.00;100.00
11676;BME280;5894;42.768;23.404;2023-02-21T06:48:03;95942.34;;;5.21;100.00
11676;BME280;5894;42.768;23.404;2023-02-21T06:50:30;95941.09;;;5.43;100.00
11676;BME280;5894;42.768;23.404;2023-02-21T06:52:57;95936.69;;;5.59;100.00
11676;BME280;5894;42.768;23.404;2023-02-21T06:55:24;95909.72;;;5.38;100.00
11676;BME280;5894;42.768;23.404;2023-02-21T06:57:50;95914.44;;;5.62;100.00
11676;BME280;5894;42.768;23.404;2023-02-21T07:00:18;95950.84;;;5.94;100.00
11676;BME280;5894;42.768;23.404;2023-02-21T07:02:46;95927.06;;;5.90;100.00
11676;BME280;5894;42.768;23.404;2023-02-21T07:05:13;95832.81;;;5.44;100.00
11676;BME280;5894;42.768;23.404;2023-02-21T07:07:40;95938.25;;;6.36;100.00
11676;BME280;5894;42.768;23.404;2023-02-21T07:10:07;95947.66;;;6.57;100.00
11676;BME280;5894;42.768;23.404;2023-02-21T07:12:34;95949.41;;;6.77;100.00
11676;BME280;5894;42.768;23.404;2023-02-21T07:15:01;95940.47;;;6.88;100.00
11676;BME280;5894;42.768;23.404;2023-02-21T07:17:28;95946.38;;;7.19;98.67
11676;BME280;5894;42.768;23.404;2023-02-21T07:19:56;95926.63;;;7.37;98.03
11676;BME280;5894;42.768;23.404;2023-02-21T07:22:23;95940.63;;;7.61;96.20
11676;BME280;5894;42.768;23.404;2023-02-21T07:24:51;95875.06;;;7.51;95.16
11676;BME280;5894;42.768;23.404;2023-02-21T07:27:19;95921.91;;;8.07;94.11
11676;BME280;5894;42.768;23.404;2023-02-21T07:29:46;95918.31;;;8.27;91.84
11676;BME280;5894;42.768;23.404;2023-02-21T07:32:13;95915.28;;;8.43;89.19
11676;BME280;5894;42.768;23.404;2023-02-21T07:34:40;95912.25;;;8.55;82.03
11676;BME280;5894;42.768;23.404;2023-02-21T07:37:08;95909.00;;;8.63;81.17
11676;BME280;5894;42.768;23.404;2023-02-21T07:39:35;95911.03;;;8.71;78.53
11676;BME280;5894;42.768;23.404;2023-02-21T07:42:03;95910.47;;;8.74;78.56
11676;BME280;5894;42.768;23.404;2023-02-21T07:44:30;95901.13;;;8.87;77.27
11676;BME280;5894;42.768;23.404;2023-02-21T07:46:57;95898.91;;;8.94;76.49
11676;BME280;5894;42.768;23.404;2023-02-21T07:49:23;95905.63;;;9.05;76.04
11676;BME280;5894;42.768;23.404;2023-02-21T07:51:50;95890.34;;;9.07;75.77
11676;BME280;5894;42.768;23.404;2023-02-21T07:54:18;95886.09;;;9.11;75.23
11676;BME280;5894;42.768;23.404;2023-02-21T07:56:48;95897.53;;;9.20;75.06
11676;BME280;5894;42.768;23.404;2023-02-21T07:59:15;95894.50;;;9.32;73.33
11676;BME280;5894;42.768;23.404;2023-02-21T08:01:42;95888.31;;;9.42;72.55
11676;BME280;5894;42.768;23.404;2023-02-21T08:04:08;95893.28;;;9.43;72.33
11676;BME280;5894;42.768;23.404;2023-02-21T08:06:35;95886.38;;;9.47;70.94
11676;BME280;5894;42.768;23.404;2023-02-21T08:09:03;95888.34;;;9.55;71.10
11676;BME280;5894;42.768;23.404;2023-02-21T08:11:32;95842.78;;;9.41;70.74
11676;BME280;5894;42.768;23.404;2023-02-21T08:14:01;95883.91;;;9.70;69.77
11676;BME280;5894;42.768;23.404;2023-02-21T08:16:28;95880.63;;;9.78;69.02
11676;BME280;5894;42.768;23.404;2023-02-21T08:18:55;95875.00;;;9.84;68.75
11676;BME280;5894;42.768;23.404;2023-02-21T08:21:21;95861.91;;;9.79;68.09
11676;BME280;5894;42.768;23.404;2023-02-21T08:23:51;95874.63;;;9.91;68.05
11676;BME280;5894;42.768;23.404;2023-02-21T08:26:18;95879.03;;;9.96;67.31
11676;BME280;5894;42.768;23.404;2023-02-21T08:28:46;95870.09;;;10.10;66.80
11676;BME280;5894;42.768;23.404;2023-02-21T08:31:15;95876.00;;;10.21;66.10
11676;BME280;5894;42.768;23.404;2023-02-21T08:33:43;95872.78;;;10.24;65.54
11676;BME280;5894;42.768;23.404;2023-02-21T08:36:10;95865.09;;;10.27;65.90
11676;BME280;5894;42.768;23.404;2023-02-21T08:38:37;95868.97;;;10.30;64.40
11676;BME280;5894;42.768;23.404;2023-02-21T08:41:05;95862.72;;;10.40;63.38
11676;BME280;5894;42.768;23.404;2023-02-21T08:43:32;95867.03;;;10.49;63.50
11676;BME280;5894;42.768;23.404;2023-02-21T08:46:00;95855.81;;;10.57;62.91
11676;BME280;5894;42.768;23.404;2023-02-21T08:48:27;95875.53;;;10.74;62.82
11676;BME280;5894;42.768;23.404;2023-02-21T08:50:53;95852.66;;;10.83;62.38
11676;BME280;5894;42.768;23.404;2023-02-21T08:53:20;95857.13;;;10.96;61.85
11676;BME280;5894;42.768;23.404;2023-02-21T08:55:47;95850.97;;;11.00;61.30
11676;BME280;5894;42.768;23.404;2023-02-21T08:58:14;95838.16;;;11.08;59.60
11676;BME280;5894;42.768;23.404;2023-02-21T09:00:40;95856.41;;;11.18;58.36
11676;BME280;5894;42.768;23.404;2023-02-21T09:03:08;95844.84;;;11.27;57.81
11676;BME280;5894;42.768;23.404;2023-02-21T09:05:35;95841.00;;;11.33;58.18
11676;BME280;5894;42.768;23.404;2023-02-21T09:08:02;95839.81;;;11.39;57.82
11676;BME280;5894;42.768;23.404;2023-02-21T09:10:31;95800.56;;;11.24;57.17
11676;BME280;5894;42.768;23.404;2023-02-21T09:12:59;95820.63;;;11.48;57.16
11676;BME280;5894;42.768;23.404;2023-02-21T09:15:26;95811.31;;;11.50;56.40
11676;BME280;5894;42.768;23.404;2023-02-21T09:17:53;95838.13;;;11.80;56.30
11676;BME280;5894;42.768;23.404;2023-02-21T09:20:24;95837.09;;;11.89;56.50
11676;BME280;5894;42.768;23.404;2023-02-21T09:22:51;95835.25;;;11.98;56.98
11676;BME280;5894;42.768;23.404;2023-02-21T09:25:21;95832.06;;;12.10;56.01
11676;BME280;5894;42.768;23.404;2023-02-21T09:27:49;95827.88;;;12.18;56.05
11676;BME280;5894;42.768;23.404;2023-02-21T09:30:17;95818.78;;;12.32;55.80
11676;BME280;5894;42.768;23.404;2023-02-21T09:32:44;95813.81;;;12.39;56.04
11676;BME280;5894;42.768;23.404;2023-02-21T09:35:12;95819.63;;;12.50;55.73
11676;BME280;5894;42.768;23.404;2023-02-21T09:37:43;95811.88;;;12.62;53.75
11676;BME280;5894;42.768;23.404;2023-02-21T09:40:15;95804.56;;;12.68;53.32
11676;BME280;5894;42.768;23.404;2023-02-21T09:42:48;95800.88;;;12.86;52.60
11676;BME280;5894;42.768;23.404;2023-02-21T09:45:16;95778.59;;;12.78;52.76
11676;BME280;5894;42.768;23.404;2023-02-21T09:47:45;95801.97;;;13.11;51.96
11676;BME280;5894;42.768;23.404;2023-02-21T09:50:18;95797.81;;;13.18;51.68
11676;BME280;5894;42.768;23.404;2023-02-21T09:52:47;95786.75;;;13.25;51.25
11676;BME280;5894;42.768;23.404;2023-02-21T09:55:21;95793.31;;;13.28;51.27
11676;BME280;5894;42.768;23.404;2023-02-21T09:57:53;95782.22;;;13.34;50.30
11676;BME280;5894;42.768;23.404;2023-02-21T10:00:22;95790.94;;;13.43;50.88
11676;BME280;5894;42.768;23.404;2023-02-21T10:03:09;95770.81;;;13.51;49.49
11676;BME280;5894;42.768;23.404;2023-02-21T10:05:42;95773.16;;;13.61;49.70
11676;BME280;5894;42.768;23.404;2023-02-21T10:08:18;95778.59;;;13.73;48.82
11676;BME280;5894;42.768;23.404;2023-02-21T10:10:48;95695.31;;;13.28;47.62
11676;BME280;5894;42.768;23.404;2023-02-21T10:13:25;95772.47;;;13.81;48.13
11676;BME280;5894;42.768;23.404;2023-02-21T10:16:00;95767.66;;;13.83;47.86
11676;BME280;5894;42.768;23.404;2023-02-21T10:18:34;95762.47;;;13.95;46.94
11676;BME280;5894;42.768;23.404;2023-02-21T10:21:11;95758.41;;;13.98;46.61
11676;BME280;5894;42.768;23.404;2023-02-21T10:23:43;95711.41;;;13.69;46.54
11676;BME280;5894;42.768;23.404;2023-02-21T10:26:13;95739.06;;;13.98;45.89
11676;BME280;5894;42.768;23.404;2023-02-21T10:28:42;95743.81;;;14.21;45.05
11676;BME280;5894;42.768;23.404;2023-02-21T10:31:12;95692.41;;;14.05;45.01
11676;BME280;5894;42.768;23.404;2023-02-21T10:33:40;95742.34;;;14.41;44.76
11676;BME280;5894;42.768;23.404;2023-02-21T10:36:11;95734.97;;;14.47;44.36
11676;BME280;5894;42.768;23.404;2023-02-21T10:38:42;95709.41;;;14.33;43.86
11676;BME280;5894;42.768;23.404;2023-02-21T10:41:13;95736.41;;;14.65;44.65
11676;BME280;5894;42.768;23.404;2023-02-21T10:43:43;95728.25;;;14.70;44.81
11676;BME280;5894;42.768;23.404;2023-02-21T10:46:17;95699.75;;;14.58;43.80
11676;BME280;5894;42.768;23.404;2023-02-21T10:48:49;95719.13;;;14.80;44.22
11676;BME280;5894;42.768;23.404;2023-02-21T10:51:28;95708.44;;;14.88;43.65
11676;BME280;5894;42.768;23.404;2023-02-21T10:54:16;95702.63;;;14.95;43.24
11676;BME280;5894;42.768;23.404;2023-02-21T10:56:44;95703.66;;;15.02;43.89
11676;BME280;5894;42.768;23.404;2023-02-21T10:59:19;95699.56;;;15.05;43.86
11676;BME280;5894;42.768;23.404;2023-02-21T11:01:48;95695.59;;;15.11;43.15
11676;BME280;5894;42.768;23.404;2023-02-21T11:04:25;95643.94;;;14.88;42.59
11676;BME280;5894;42.768;23.404;2023-02-21T11:06:54;95684.56;;;15.21;42.84
11676;BME280;5894;42.768;23.404;2023-02-21T11:09:41;95681.81;;;15.30;42.14
11676;BME280;5894;42.768;23.404;2023-02-21T11:12:18;95669.00;;;15.32;42.38
11676;BME280;5894;42.768;23.404;2023-02-21T11:15:04;95676.22;;;15.43;42.25
11676;BME280;5894;42.768;23.404;2023-02-21T11:17:33;95665.25;;;15.45;41.60
11676;BME280;5894;42.768;23.404;2023-02-21T11:20:03;95670.03;;;15.52;41.42
11676;BME280;5894;42.768;23.404;2023-02-21T11:22:37;95668.41;;;15.59;40.75
11676;BME280;5894;42.768;23.404;2023-02-21T11:25:17;95658.81;;;15.67;39.52
11676;BME280;5894;42.768;23.404;2023-02-21T11:27:58;95649.94;;;15.75;39.17
11676;BME280;5894;42.768;23.404;2023-02-21T11:30:27;95634.75;;;15.75;38.88
11676;BME280;5894;42.768;23.404;2023-02-21T11:32:57;95640.31;;;15.95;38.88
11676;BME280;5894;42.768;23.404;2023-02-21T11:35:26;95636.94;;;16.10;37.87
11676;BME280;5894;42.768;23.404;2023-02-21T11:37:56;95624.66;;;16.18;36.94
11676;BME280;5894;42.768;23.404;2023-02-21T11:40:38;95632.50;;;16.26;36.71
11676;BME280;5894;42.768;23.404;2023-02-21T11:43:12;95625.63;;;16.37;36.31
11676;BME280;5894;42.768;23.404;2023-02-21T11:45:43;95586.06;;;16.24;36.26
11676;BME280;5894;42.768;23.404;2023-02-21T11:48:15;95606.41;;;16.44;36.29
11676;BME280;5894;42.768;23.404;2023-02-21T11:50:49;95606.19;;;16.49;36.52
11676;BME280;5894;42.768;23.404;2023-02-21T11:53:22;95600.94;;;16.52;35.41
11676;BME280;5894;42.768;23.404;2023-02-21T11:55:56;95592.06;;;16.61;35.07
11676;BME280;5894;42.768;23.404;2023-02-21T11:58:31;95549.44;;;16.33;35.50
11676;BME280;5894;42.768;23.404;2023-02-21T12:01:03;95584.75;;;16.70;34.69
11676;BME280;5894;42.768;23.404;2023-02-21T12:03:54;95587.72;;;16.68;34.77
11676;BME280;5894;42.768;23.404;2023-02-21T12:06:30;95579.50;;;16.73;35.09
11676;BME280;5894;42.768;23.404;2023-02-21T12:09:01;95578.03;;;16.76;35.31
11676;BME280;5894;42.768;23.404;2023-02-21T12:11:43;95573.16;;;16.78;34.92
11676;BME280;5894;42.768;23.404;2023-02-21T12:14:23;95564.38;;;16.77;34.21
11676;BME280;5894;42.768;23.404;2023-02-21T12:17:02;95564.38;;;16.77;34.62
11676;BME280;5894;42.768;23.404;2023-02-21T12:19:43;95562.16;;;16.79;34.61
11676;BME280;5894;42.768;23.404;2023-02-21T12:22:21;95549.63;;;16.80;34.68
11676;BME280;5894;42.768;23.404;2023-02-21T12:25:04;95532.00;;;16.75;35.25
11676;BME280;5894;42.768;23.404;2023-02-21T12:27:44;95525.22;;;16.78;34.90
11676;BME280;5894;42.768;23.404;2023-02-21T12:30:26;95530.81;;;16.88;35.28
11676;BME280;5894;42.768;23.404;2023-02-21T12:33:08;95525.16;;;16.90;34.83
11676;BME280;5894;42.768;23.404;2023-02-21T12:35:55;95520.88;;;17.01;34.80
11676;BME280;5894;42.768;23.404;2023-02-21T12:38:53;95513.03;;;17.08;33.88
11676;BME280;5894;42.768;23.404;2023-02-21T12:41:40;95520.97;;;17.20;32.65
11676;BME280;5894;42.768;23.404;2023-02-21T12:44:14;95521.91;;;17.28;32.00
11676;BME280;5894;42.768;23.404;2023-02-21T12:46:48;95516.91;;;17.27;31.57
11676;BME280;5894;42.768;23.404;2023-02-21T12:49:21;95515.94;;;17.35;31.60
11676;BME280;5894;42.768;23.404;2023-02-21T12:51:52;95471.28;;;17.12;31.55
11676;BME280;5894;42.768;23.404;2023-02-21T12:54:25;95507.19;;;17.50;30.83
11676;BME280;5894;42.768;23.404;2023-02-21T12:56:58;95506.06;;;17.51;30.92
11676;BME280;5894;42.768;23.404;2023-02-21T12:59:34;95491.97;;;17.50;30.80
11676;BME280;5894;42.768;23.404;2023-02-21T13:02:08;95496.75;;;17.60;31.21
11676;BME280;5894;42.768;23.404;2023-02-21T13:04:45;95487.81;;;17.69;30.79
11676;BME280;5894;42.768;23.404;2023-02-21T13:07:16;95494.16;;;17.80;31.30
11676;BME280;5894;42.768;23.404;2023-02-21T13:09:55;95500.84;;;17.89;30.90
11676;BME280;5894;42.768;23.404;2023-02-21T13:12:28;95487.94;;;17.91;31.00
11676;BME280;5894;42.768;23.404;2023-02-21T13:15:00;95491.69;;;18.06;30.96
11676;BME280;5894;42.768;23.404;2023-02-21T13:17:29;95485.28;;;18.11;30.19
11676;BME280;5894;42.768;23.404;2023-02-21T13:20:00;95490.81;;;18.21;30.86
11676;BME280;5894;42.768;23.404;2023-02-21T13:26:15;95449.53;;;18.15;30.31
11676;BME280;5894;42.768;23.404;2023-02-21T13:28:50;95487.56;;;18.51;30.40
11676;BME280;5894;42.768;23.404;2023-02-21T13:31:21;95474.03;;;18.59;30.15
11676;BME280;5894;42.768;23.404;2023-02-21T13:33:50;95446.94;;;18.57;29.97
11676;BME280;5894;42.768;23.404;2023-02-21T13:36:25;95475.16;;;18.58;29.96
11676;BME280;5894;42.768;23.404;2023-02-21T13:38:57;95482.66;;;18.72;29.67
11676;BME280;5894;42.768;23.404;2023-02-21T13:41:26;95474.22;;;18.70;29.21
11676;BME280;5894;42.768;23.404;2023-02-21T13:43:55;95480.34;;;18.70;29.52